Time;durP1;ratioP1;P1;durP2;ratioP2;P2;SDS_P1;SDS_P2;PMS_P1;PMS_P2;Temp;Humidity;BMP_temperature;BMP_pressure;BME280_temperature;BME280_humidity;BME280_pressure;Samples;Min_cycle;Max_cycle;Signal;HPM_P1;HPM_P2
2023/07/16 00:01:34;;;;;;;4.22;3.60;;;;;;;26.57;70.06;99972.78;5037460;28;20029;-66
2023/07/16 00:04:00;;;;;;;8.20;3.95;;;;;;;26.67;69.30;99972.03;5037196;28;20049;-65
2023/07/16 00:06:25;;;;;;;4.13;3.53;;;;;;;26.75;69.18;99971.53;5037426;28;20043;-66
2023/07/16 00:08:50;;;;;;;4.88;4.05;;;;;;;26.81;68.54;99967.75;5037145;28;20044;-66
2023/07/16 00:11:16;;;;;;;5.18;3.50;;;;;;;26.87;68.49;99969.41;5037445;28;20033;-67
2023/07/16 00:13:46;;;;;;;4.28;3.88;;;;;;;26.92;68.40;99968.63;5037107;28;20322;-67
2023/07/16 00:16:11;;;;;;;5.15;3.50;;;;;;;27.00;68.47;99968.16;5037118;28;20048;-65
2023/07/16 00:18:37;;;;;;;4.00;3.58;;;;;;;27.08;67.95;99975.03;5036382;28;20057;-67
2023/07/16 00:21:02;;;;;;;5.18;4.03;;;;;;;27.15;67.63;99981.84;5037055;28;20033;-66
2023/07/16 00:23:28;;;;;;;5.20;3.50;;;;;;;27.20;67.26;99972.91;5037159;28;20052;-65
2023/07/16 00:25:53;;;;;;;5.25;3.42;;;;;;;27.15;66.76;99976.41;5037335;28;20041;-65
2023/07/16 00:28:18;;;;;;;5.97;3.58;;;;;;;27.01;67.35;99973.31;5040770;28;20049;-66
2023/07/16 00:30:44;;;;;;;5.63;3.78;;;;;;;26.81;68.91;99975.09;5041012;28;20032;-65
2023/07/16 00:33:09;;;;;;;5.97;3.33;;;;;;;26.81;68.57;99975.09;5040903;28;20049;-65
2023/07/16 00:35:35;;;;;;;4.78;3.60;;;;;;;26.86;68.94;99981.38;5040943;28;20041;-65
2023/07/16 00:38:00;;;;;;;4.93;3.55;;;;;;;26.84;69.01;99972.66;5040961;28;20392;-65
2023/07/16 00:40:26;;;;;;;4.95;3.90;;;;;;;26.82;68.53;99971.28;5040874;28;20072;-66
2023/07/16 00:42:51;;;;;;;4.68;3.85;;;;;;;26.81;68.80;99975.09;5040871;28;20033;-66
2023/07/16 00:45:16;;;;;;;5.65;4.45;;;;;;;26.76;69.16;99975.88;5041142;28;20029;-65
2023/07/16 00:47:44;;;;;;;5.10;3.75;;;;;;;26.81;69.17;99973.19;5040254;28;20250;-65
2023/07/16 00:50:13;;;;;;;3.67;3.38;;;;;;;26.81;69.01;99970.47;5040686;28;20038;-65
2023/07/16 00:52:39;;;;;;;4.55;3.78;;;;;;;26.78;68.78;99973.72;5040565;28;20049;-66
2023/07/16 00:55:06;;;;;;;6.05;3.95;;;;;;;26.82;68.78;99972.09;5040492;28;20048;-66
2023/07/16 00:57:32;;;;;;;4.95;3.55;;;;;;;26.89;68.63;99972.69;5040466;28;20037;-66
2023/07/16 00:59:58;;;;;;;6.20;4.32;;;;;;;26.97;68.61;99965.94;5040247;28;20264;-65
2023/07/16 01:02:23;;;;;;;5.60;4.25;;;;;;;27.01;68.48;99967.88;5040207;28;20061;-65
2023/07/16 01:04:49;;;;;;;6.85;4.18;;;;;;;27.05;67.66;99965.50;5040305;28;20108;-66
2023/07/16 01:07:17;;;;;;;4.18;3.78;;;;;;;27.09;67.91;99969.31;5040334;28;20042;-66
2023/07/16 01:09:44;;;;;;;4.80;4.30;;;;;;;27.12;68.04;99971.50;5040532;28;20044;-66
2023/07/16 01:12:10;;;;;;;4.03;3.63;;;;;;;27.13;68.42;99975.84;5040064;28;20041;-66
2023/07/16 01:14:36;;;;;;;5.68;4.60;;;;;;;27.13;68.49;99977.75;5040411;28;20238;-65
2023/07/16 01:17:06;;;;;;;4.55;3.88;;;;;;;27.14;68.79;99971.25;5039459;28;20049;-66
2023/07/16 01:19:33;;;;;;;6.45;4.15;;;;;;;27.12;68.83;99967.97;5040008;28;20037;-66
2023/07/16 01:22:20;;;;;;;6.78;4.78;;;;;;;27.11;68.81;99980.75;5039728;28;20091;-66
2023/07/16 01:25:07;;;;;;;4.93;4.35;;;;;;;27.14;68.45;99982.13;5039985;28;20338;-66
2023/07/16 01:28:10;;;;;;;4.63;3.90;;;;;;;27.07;68.26;99976.91;5040043;28;20049;-66
2023/07/16 01:30:39;;;;;;;5.55;3.83;;;;;;;27.06;68.59;99979.91;5016605;28;20212;-66
2023/07/16 01:33:05;;;;;;;4.55;3.70;;;;;;;27.03;68.22;99982.03;5039688;28;20455;-65
2023/07/16 01:35:32;;;;;;;5.00;3.83;;;;;;;27.04;68.30;99978.22;5039639;28;20034;-65
2023/07/16 01:37:57;;;;;;;5.75;3.85;;;;;;;26.97;68.55;99974.94;5039294;28;20132;-66
2023/07/16 01:40:23;;;;;;;5.75;3.70;;;;;;;26.98;68.63;99982.00;5039798;28;20343;-65
2023/07/16 01:42:48;;;;;;;12.07;4.07;;;;;;;26.97;68.73;99974.09;5039867;28;20261;-66
2023/07/16 01:45:13;;;;;;;6.38;3.88;;;;;;;26.92;69.22;99982.22;5040107;28;20262;-65
2023/07/16 01:47:53;;;;;;;4.82;3.80;;;;;;;26.95;68.94;99982.50;5039643;28;20245;-65
2023/07/16 01:50:18;;;;;;;4.57;4.00;;;;;;;26.96;68.55;99986.03;5040126;28;20424;-66
2023/07/16 01:52:44;;;;;;;4.28;3.85;;;;;;;26.92;68.72;99982.22;5040453;28;20052;-67
2023/07/16 01:55:09;;;;;;;4.90;3.65;;;;;;;26.92;68.66;99983.03;5040382;28;20052;-65
2023/07/16 01:57:34;;;;;;;4.32;3.92;;;;;;;26.89;68.79;99980.84;5040439;28;20052;-66
2023/07/16 02:00:00;;;;;;;4.93;3.92;;;;;;;26.86;68.87;99975.94;5040933;28;20049;-67
2023/07/16 02:02:26;;;;;;;4.05;3.53;;;;;;;26.85;68.55;99979.72;5040752;28;20243;-66
2023/07/16 02:04:51;;;;;;;4.22;3.85;;;;;;;26.84;67.86;99978.09;5040951;28;20357;-66
2023/07/16 02:07:16;;;;;;;4.18;3.70;;;;;;;26.82;67.72;99980.25;5039945;28;20250;-66
2023/07/16 02:09:42;;;;;;;4.50;3.97;;;;;;;26.82;67.11;99988.41;5039508;28;20043;-65
2023/07/16 02:12:07;;;;;;;4.30;3.67;;;;;;;26.82;67.22;99990.31;5038899;28;20037;-65
2023/07/16 02:14:33;;;;;;;4.38;3.75;;;;;;;26.81;67.23;99985.97;5039072;28;20038;-66
2023/07/16 02:16:58;;;;;;;6.57;3.83;;;;;;;26.80;67.60;99989.75;5038223;28;20036;-66
2023/07/16 02:19:25;;;;;;;4.22;3.72;;;;;;;26.77;68.12;99987.56;5038683;28;20051;-65
2023/07/16 02:21:51;;;;;;;5.07;3.70;;;;;;;26.75;68.06;99990.53;5039152;28;20135;-65
2023/07/16 02:24:16;;;;;;;3.80;3.50;;;;;;;26.72;68.06;99993.78;5020881;28;20035;-66
2023/07/16 02:26:41;;;;;;;3.80;3.50;;;;;;;26.68;68.53;99993.50;5038956;28;20029;-65
2023/07/16 02:29:08;;;;;;;5.53;3.85;;;;;;;26.65;68.57;99993.19;5038552;28;20034;-66
2023/07/16 02:31:34;;;;;;;5.18;3.90;;;;;;;26.63;67.92;99990.75;5038557;28;20033;-65
2023/07/16 02:34:00;;;;;;;5.75;3.65;;;;;;;26.63;67.77;99989.91;5038997;28;20108;-65
2023/07/16 02:36:25;;;;;;;6.15;3.95;;;;;;;26.65;67.18;100001.34;5038911;28;20045;-66
2023/07/16 02:38:51;;;;;;;4.03;3.47;;;;;;;26.61;67.09;100005.66;5038985;28;20432;-66
2023/07/16 02:41:16;;;;;;;4.35;3.67;;;;;;;26.60;67.26;100001.31;5038532;28;20341;-66
2023/07/16 02:43:41;;;;;;;5.43;3.90;;;;;;;26.62;67.42;100001.88;5038426;28;20041;-65
2023/07/16 02:46:07;;;;;;;4.13;3.67;;;;;;;26.65;67.12;100012.22;5038324;28;20037;-66
2023/07/16 02:48:32;;;;;;;5.97;3.70;;;;;;;26.63;67.66;100006.22;5037547;28;20222;-65
2023/07/16 02:50:57;;;;;;;5.07;3.80;;;;;;;26.60;67.55;100004.84;5038053;28;20039;-66
2023/07/16 02:53:23;;;;;;;6.03;4.05;;;;;;;26.63;67.97;100006.22;5038953;28;20043;-65
2023/07/16 02:55:48;;;;;;;7.40;4.07;;;;;;;26.60;68.07;100010.28;5039376;28;20041;-66
2023/07/16 02:58:14;;;;;;;6.10;4.30;;;;;;;26.57;68.36;100008.06;5039047;28;20043;-66
2023/07/16 03:00:39;;;;;;;8.25;3.85;;;;;;;26.54;68.60;100002.34;5038914;28;20040;-65
2023/07/16 03:03:05;;;;;;;5.80;4.20;;;;;;;26.50;68.97;100012.09;5038117;28;20353;-66
2023/07/16 03:05:30;;;;;;;4.78;4.20;;;;;;;26.49;69.45;100015.88;5038180;28;20033;-66
2023/07/16 03:07:55;;;;;;;6.15;4.10;;;;;;;26.44;69.41;100005.81;5038221;28;20109;-66
2023/07/16 03:10:22;;;;;;;5.38;4.22;;;;;;;26.43;69.36;100004.16;5038067;28;20033;-65
2023/07/16 03:12:47;;;;;;;6.18;4.30;;;;;;;26.46;69.19;100006.38;5037536;28;20105;-66
2023/07/16 03:15:13;;;;;;;7.22;4.40;;;;;;;26.49;68.88;100007.75;5038213;28;20087;-66
2023/07/16 03:17:38;;;;;;;5.72;4.28;;;;;;;26.44;69.17;100011.25;5037498;28;20092;-66
2023/07/16 03:20:05;;;;;;;8.68;4.53;;;;;;;26.42;70.26;100010.69;5038966;28;20036;-66
2023/07/16 03:22:31;;;;;;;6.07;4.80;;;;;;;26.42;70.15;100010.69;5038864;28;20069;-65
2023/07/16 03:24:56;;;;;;;6.47;4.43;;;;;;;26.37;69.84;100011.47;5038761;28;20044;-65
2023/07/16 03:27:21;;;;;;;4.85;3.92;;;;;;;26.34;70.43;100011.97;5038828;28;20049;-66
2023/07/16 03:29:47;;;;;;;7.38;4.93;;;;;;;26.38;69.94;100009.56;5038805;28;20033;-66
2023/07/16 03:32:12;;;;;;;6.05;4.32;;;;;;;26.37;70.06;100010.63;5038822;28;20338;-65
2023/07/16 03:34:38;;;;;;;6.00;4.35;;;;;;;26.43;70.20;100020.47;5038562;28;20044;-67
2023/07/16 03:37:03;;;;;;;5.25;4.50;;;;;;;26.46;70.23;100010.97;5037706;28;20041;-67
2023/07/16 03:39:29;;;;;;;5.07;4.18;;;;;;;26.46;70.41;100019.13;5038695;28;20368;-66
2023/07/16 03:41:54;;;;;;;5.47;4.85;;;;;;;26.44;70.12;100016.66;5038399;28;20243;-66
2023/07/16 03:44:19;;;;;;;6.13;4.65;;;;;;;26.46;70.05;100025.38;5038277;28;20045;-66
2023/07/16 03:46:45;;;;;;;6.28;4.90;;;;;;;26.46;70.56;100022.66;5038509;28;20041;-66
2023/07/16 03:49:10;;;;;;;5.70;4.32;;;;;;;26.47;70.62;100023.47;5038568;28;20048;-65
2023/07/16 03:51:36;;;;;;;4.90;4.40;;;;;;;26.48;70.88;100025.13;5038574;28;20040;-66
2023/07/16 03:54:01;;;;;;;6.07;4.40;;;;;;;26.53;70.77;100028.69;5038967;28;20086;-66
2023/07/16 03:56:26;;;;;;;5.05;4.40;;;;;;;26.59;70.12;100018.69;5039129;28;20361;-66
2023/07/16 03:58:52;;;;;;;4.65;4.15;;;;;;;26.59;69.95;100029.53;5038412;28;20039;-66
2023/07/16 04:01:17;;;;;;;5.72;4.55;;;;;;;26.59;70.11;100033.06;5041154;28;20045;-65
2023/07/16 04:03:43;;;;;;;5.57;4.50;;;;;;;26.69;69.96;100035.88;5042353;28;20037;-66
2023/07/16 04:06:09;;;;;;;5.10;4.65;;;;;;;26.76;70.56;100032.09;5042562;28;20042;-66
2023/07/16 04:08:36;;;;;;;4.90;4.03;;;;;;;26.81;69.91;100032.97;5042182;28;20080;-66
2023/07/16 04:11:04;;;;;;;5.70;5.13;;;;;;;26.84;70.41;100037.88;5041729;28;20041;-66
2023/07/16 04:13:29;;;;;;;6.03;4.45;;;;;;;26.88;71.09;100038.16;5041262;28;20049;-66
2023/07/16 04:15:57;;;;;;;6.75;4.75;;;;;;;26.91;70.76;100041.19;5041450;28;20029;-66
2023/07/16 04:18:23;;;;;;;5.18;4.35;;;;;;;26.96;70.39;100043.94;5040292;28;20099;-65
2023/07/16 04:20:48;;;;;;;6.68;5.03;;;;;;;26.95;70.34;100049.63;5041388;28;20030;-66
2023/07/16 04:23:14;;;;;;;6.07;4.43;;;;;;;26.83;69.89;100046.28;5041339;28;20330;-66
2023/07/16 04:25:39;;;;;;;7.35;4.70;;;;;;;26.87;69.71;100041.97;5041729;28;20306;-66
2023/07/16 04:28:04;;;;;;;7.15;5.80;;;;;;;26.97;69.89;100045.59;5041190;28;20055;-65
2023/07/16 04:30:30;;;;;;;7.05;4.32;;;;;;;27.09;70.61;100052.75;5042059;28;20110;-67
2023/07/16 04:32:55;;;;;;;5.35;4.68;;;;;;;27.21;69.22;100050.66;5041631;28;20037;-66
2023/07/16 04:35:21;;;;;;;4.75;4.25;;;;;;;27.37;68.58;100049.63;5042009;28;20338;-67
2023/07/16 04:37:46;;;;;;;6.22;4.60;;;;;;;27.51;67.23;100052.69;5041242;28;20287;-65
2023/07/16 04:40:12;;;;;;;5.30;4.45;;;;;;;27.65;66.99;100057.41;5041324;28;20041;-66
2023/07/16 04:42:37;;;;;;;5.60;4.47;;;;;;;27.84;65.66;100055.00;5041627;28;20313;-66
2023/07/16 04:45:05;;;;;;;5.60;4.35;;;;;;;28.04;64.99;100053.41;5041700;28;20064;-66
2023/07/16 04:47:30;;;;;;;5.82;4.38;;;;;;;28.10;63.56;100034.13;5040092;28;20314;-66
2023/07/16 04:49:58;;;;;;;6.25;5.15;;;;;;;28.29;63.50;100061.69;5040767;28;20037;-67
2023/07/16 04:52:23;;;;;;;5.80;4.30;;;;;;;28.26;62.88;100060.31;5040857;28;20242;-66
2023/07/16 04:54:49;;;;;;;5.90;4.28;;;;;;;28.05;63.01;100058.59;5041733;28;20056;-66
2023/07/16 04:57:14;;;;;;;5.93;4.68;;;;;;;28.06;62.32;100059.41;5041069;28;20367;-67
2023/07/16 04:59:40;;;;;;;5.07;4.22;;;;;;;28.00;62.97;100066.75;5041519;28;20032;-67
2023/07/16 05:02:06;;;;;;;5.00;4.50;;;;;;;27.80;63.89;100067.50;5041063;28;20339;-67
2023/07/16 05:04:32;;;;;;;5.63;4.50;;;;;;;27.74;63.60;100062.31;5041608;28;20041;-66
2023/07/16 05:06:58;;;;;;;5.18;4.20;;;;;;;27.49;64.54;100068.47;5041249;28;20160;-65
2023/07/16 05:09:23;;;;;;;6.13;4.78;;;;;;;27.58;64.41;100075.84;5041581;28;20053;-67
2023/07/16 05:11:49;;;;;;;5.68;4.85;;;;;;;27.57;62.89;100070.66;5039979;28;20047;-66
2023/07/16 05:14:14;;;;;;;5.25;4.55;;;;;;;27.49;63.27;100071.19;5041430;28;20091;-65
2023/07/16 05:16:40;;;;;;;6.07;4.75;;;;;;;27.72;63.37;100073.47;5040640;28;20025;-66
2023/07/16 05:19:05;;;;;;;5.53;4.47;;;;;;;27.84;62.46;100078.69;5040492;28;20057;-65
2023/07/16 05:21:30;;;;;;;6.18;4.53;;;;;;;27.55;64.30;100073.66;5040506;28;20033;-66
2023/07/16 05:23:56;;;;;;;5.70;5.20;;;;;;;27.84;63.07;100084.13;5040497;28;20037;-65
2023/07/16 05:26:21;;;;;;;4.28;3.88;;;;;;;28.07;62.16;100083.63;5040159;28;20051;-66
2023/07/16 05:28:47;;;;;;;6.13;4.13;;;;;;;28.05;61.88;100074.94;5040446;28;20079;-66
2023/07/16 05:31:12;;;;;;;7.03;4.63;;;;;;;28.18;60.91;100077.16;5040374;28;20038;-66
2023/07/16 05:33:37;;;;;;;6.97;4.82;;;;;;;27.88;61.47;100091.47;5039935;28;20065;-66
2023/07/16 05:36:03;;;;;;;4.57;4.18;;;;;;;27.62;61.82;100084.31;5040452;28;20029;-66
2023/07/16 05:38:28;;;;;;;5.85;4.53;;;;;;;27.69;60.98;100089.50;5040111;28;20041;-66
2023/07/16 05:41:01;;;;;;;5.78;3.88;;;;;;;27.75;59.83;100086.53;5039902;28;20038;-67
2023/07/16 05:43:26;;;;;;;5.63;4.35;;;;;;;28.06;59.99;100090.16;5039587;28;20358;-66
2023/07/16 05:45:52;;;;;;;4.40;4.00;;;;;;;28.15;58.83;100091.31;5039423;28;20045;-66
2023/07/16 05:48:17;;;;;;;4.45;3.95;;;;;;;28.19;56.89;100091.59;5039379;28;20181;-66
2023/07/16 05:50:44;;;;;;;6.13;4.40;;;;;;;28.29;59.25;100095.19;5039744;28;20045;-66
2023/07/16 05:53:10;;;;;;;5.35;4.60;;;;;;;28.26;58.91;100097.63;5039350;28;20044;-66
2023/07/16 05:55:35;;;;;;;6.95;4.47;;;;;;;28.25;58.26;100104.16;5039569;28;20053;-65
2023/07/16 05:58:01;;;;;;;7.57;4.43;;;;;;;28.28;57.55;100103.63;5039395;28;20037;-66
2023/07/16 06:00:26;;;;;;;6.78;4.53;;;;;;;28.12;57.60;100102.75;5039512;28;20045;-66
2023/07/16 06:02:51;;;;;;;5.53;4.40;;;;;;;28.31;58.15;100105.81;5039799;28;20041;-66
2023/07/16 06:05:17;;;;;;;6.70;4.97;;;;;;;28.50;56.10;100104.19;5040284;28;20037;-67
2023/07/16 06:07:43;;;;;;;6.45;4.50;;;;;;;28.86;55.11;100115.13;5040428;28;20268;-66
2023/07/16 06:10:09;;;;;;;5.55;4.78;;;;;;;28.67;55.18;100103.91;5040352;28;20049;-66
2023/07/16 06:12:34;;;;;;;5.50;4.82;;;;;;;28.81;54.96;100102.28;5039863;28;20030;-66
2023/07/16 06:15:00;;;;;;;5.40;4.60;;;;;;;28.76;55.47;100098.75;5039713;28;20056;-66
2023/07/16 06:17:25;;;;;;;5.82;4.57;;;;;;;29.05;56.57;100094.38;5038500;28;20049;-66
2023/07/16 06:19:51;;;;;;;6.03;5.05;;;;;;;29.25;54.39;100090.81;5039060;28;20033;-66
2023/07/16 06:22:17;;;;;;;6.15;5.00;;;;;;;29.12;54.89;100085.91;5039091;28;20045;-66
2023/07/16 06:24:42;;;;;;;7.03;4.50;;;;;;;29.20;55.03;100094.38;5039523;28;20041;-66
2023/07/16 06:27:08;;;;;;;6.90;4.82;;;;;;;29.28;55.56;100087.53;5038710;28;20304;-66
2023/07/16 06:29:33;;;;;;;7.63;4.40;;;;;;;28.96;55.27;100089.75;5038886;28;20033;-66
2023/07/16 06:31:59;;;;;;;5.53;4.63;;;;;;;28.85;54.38;100091.69;5038858;28;20033;-66
2023/07/16 06:34:25;;;;;;;7.18;4.80;;;;;;;28.85;54.36;100094.41;5038601;28;20033;-66
2023/07/16 06:36:50;;;;;;;5.72;4.45;;;;;;;29.41;54.21;100078.78;5038652;28;20040;-66
2023/07/16 06:39:16;;;;;;;5.63;5.00;;;;;;;29.35;54.73;100087.25;5038586;28;20038;-66
2023/07/16 06:41:42;;;;;;;5.35;4.85;;;;;;;29.60;51.81;100083.63;5038962;28;20250;-66
2023/07/16 06:44:07;;;;;;;5.70;4.70;;;;;;;29.76;52.26;100077.81;5038585;28;20076;-66
2023/07/16 06:46:32;;;;;;;6.85;4.78;;;;;;;29.78;51.60;100075.63;5038148;28;20033;-66
2023/07/16 06:48:58;;;;;;;6.90;4.95;;;;;;;29.78;49.32;100070.19;5038244;28;20044;-66
2023/07/16 06:51:23;;;;;;;5.93;5.10;;;;;;;30.30;48.97;100060.63;5039055;28;20049;-66
2023/07/16 06:53:49;;;;;;;10.23;5.03;;;;;;;30.35;50.90;100068.78;5038712;28;20041;-66
2023/07/16 06:56:15;;;;;;;6.40;4.55;;;;;;;29.84;50.60;100060.88;5038815;28;20039;-66
2023/07/16 06:58:40;;;;;;;5.30;4.80;;;;;;;29.77;49.36;100057.63;5038541;28;20049;-66
2023/07/16 07:01:05;;;;;;;4.90;4.40;;;;;;;29.80;50.26;100059.78;5038164;28;20343;-66
2023/07/16 07:03:33;;;;;;;7.68;5.30;;;;;;;29.50;51.04;100063.47;5038625;28;20045;-66
2023/07/16 07:06:01;;;;;;;5.65;4.50;;;;;;;29.94;51.81;100070.09;5037949;28;20040;-65
2023/07/16 07:08:26;;;;;;;5.60;3.95;;;;;;;30.13;46.56;100066.44;5037854;28;20033;-66
2023/07/16 07:10:52;;;;;;;5.72;4.10;;;;;;;29.87;48.00;100071.22;5037907;28;20396;-66
2023/07/16 07:13:17;;;;;;;5.30;3.70;;;;;;;29.86;44.67;100060.59;5038067;28;20041;-66
2023/07/16 07:15:43;;;;;;;5.93;3.63;;;;;;;30.05;46.77;100066.22;5037870;28;20044;-66
2023/07/16 07:18:08;;;;;;;4.10;3.65;;;;;;;30.10;46.40;100066.19;5037220;28;20057;-66
2023/07/16 07:20:34;;;;;;;5.20;3.80;;;;;;;30.18;46.09;100057.44;5038243;28;20022;-66
2023/07/16 07:23:02;;;;;;;3.38;3.08;;;;;;;29.97;44.69;100066.78;5037997;28;20041;-66
2023/07/16 07:25:27;;;;;;;4.90;3.72;;;;;;;29.69;47.09;100063.66;5038080;28;20140;-66
2023/07/16 07:27:53;;;;;;;4.55;3.45;;;;;;;29.65;46.94;100061.78;5038379;28;20041;-66
2023/07/16 07:30:18;;;;;;;4.13;3.45;;;;;;;30.01;47.98;100062.41;5038419;28;20238;-66
2023/07/16 07:32:44;;;;;;;3.88;2.85;;;;;;;29.88;44.03;100059.19;5038619;28;20037;-67
2023/07/16 07:35:09;;;;;;;3.17;2.67;;;;;;;30.07;43.46;100059.38;5038858;28;20035;-67
2023/07/16 07:37:35;;;;;;;4.38;3.42;;;;;;;29.97;46.67;100056.69;5038794;28;20047;-66
2023/07/16 07:40:00;;;;;;;4.45;3.45;;;;;;;30.43;45.81;100050.97;5038278;28;20331;-66
2023/07/16 07:42:27;;;;;;;4.22;3.70;;;;;;;30.35;44.85;100060.59;5037981;28;20045;-66
2023/07/16 07:44:52;;;;;;;4.82;3.83;;;;;;;30.57;44.92;100057.41;5038058;28;20300;-66
2023/07/16 07:47:17;;;;;;;5.38;3.83;;;;;;;30.65;44.34;100053.25;5038009;28;20060;-67
2023/07/16 07:49:43;;;;;;;4.85;3.80;;;;;;;30.56;45.41;100044.03;5039275;28;20319;-66
2023/07/16 07:52:08;;;;;;;4.68;3.90;;;;;;;30.55;44.12;100051.41;5037970;28;20057;-66
2023/07/16 07:54:34;;;;;;;4.40;3.83;;;;;;;31.08;43.49;100049.53;5039078;28;20040;-67
2023/07/16 07:57:04;;;;;;;4.00;3.58;;;;;;;31.15;42.22;100042.94;5038313;28;20232;-66
2023/07/16 07:59:30;;;;;;;4.00;3.55;;;;;;;31.22;42.05;100049.72;5039059;28;20037;-67
2023/07/16 08:01:56;;;;;;;4.47;3.55;;;;;;;30.92;42.61;100050.00;5037395;28;20036;-66
2023/07/16 08:04:21;;;;;;;4.72;3.47;;;;;;;30.91;42.30;100048.38;5037801;28;20037;-66
2023/07/16 08:06:47;;;;;;;5.28;3.55;;;;;;;31.42;42.58;100046.75;5037589;28;20033;-67
2023/07/16 08:09:12;;;;;;;4.85;4.07;;;;;;;31.07;43.28;100050.66;5037773;28;20034;-67
2023/07/16 08:11:37;;;;;;;4.35;3.95;;;;;;;31.24;44.15;100049.44;5038101;28;20302;-66
2023/07/16 08:14:03;;;;;;;4.45;4.05;;;;;;;31.20;43.82;100046.44;5037305;28;20037;-66
2023/07/16 08:16:28;;;;;;;5.15;4.18;;;;;;;31.22;44.07;100051.66;5037178;28;20044;-66
2023/07/16 08:18:54;;;;;;;4.35;3.92;;;;;;;31.36;44.42;100044.38;5036816;28;20309;-66
2023/07/16 08:21:19;;;;;;;4.65;3.80;;;;;;;31.80;43.62;100041.34;5037350;28;20029;-66
2023/07/16 08:23:49;;;;;;;7.35;4.32;;;;;;;31.67;44.93;100031.91;5037280;28;20043;-66
2023/07/16 08:26:16;;;;;;;7.22;4.50;;;;;;;31.31;46.76;100044.44;5037447;28;20080;-66
2023/07/16 08:28:41;;;;;;;5.28;4.63;;;;;;;31.44;45.37;100039.06;5036951;28;20045;-66
2023/07/16 08:31:07;;;;;;;5.10;4.25;;;;;;;31.51;46.06;100038.69;5037303;28;20037;-66
2023/07/16 08:33:32;;;;;;;4.93;4.53;;;;;;;31.55;45.32;100036.19;5037413;28;20045;-67
2023/07/16 08:35:58;;;;;;;7.25;5.25;;;;;;;31.69;44.53;100028.88;5037134;28;20311;-66
2023/07/16 08:38:23;;;;;;;6.57;4.53;;;;;;;32.04;43.66;100035.78;5037120;28;20224;-66
2023/07/16 08:40:49;;;;;;;5.30;4.53;;;;;;;31.82;44.97;100036.38;5037092;28;20253;-66
2023/07/16 08:43:16;;;;;;;4.95;4.45;;;;;;;31.47;45.14;100029.44;5037073;28;20537;-66
2023/07/16 08:45:44;;;;;;;5.85;4.75;;;;;;;31.77;44.94;100025.50;5036855;28;20053;-66
2023/07/16 08:48:10;;;;;;;6.07;4.80;;;;;;;31.26;47.06;100023.41;5039108;28;20841;-66
2023/07/16 08:50:36;;;;;;;6.80;4.95;;;;;;;31.38;46.13;100031.19;5041462;28;20376;-67
2023/07/16 08:53:04;;;;;;;6.20;5.60;;;;;;;31.56;47.15;100019.47;5040904;28;20041;-66
2023/07/16 08:55:30;;;;;;;5.75;5.18;;;;;;;31.49;47.76;100029.16;5041218;28;20111;-67
2023/07/16 08:57:57;;;;;;;6.68;4.93;;;;;;;31.57;45.14;100023.03;5040755;28;20327;-66
2023/07/16 09:00:25;;;;;;;4.95;4.45;;;;;;;31.70;46.98;100025.06;5040708;28;20235;-66
2023/07/16 09:02:52;;;;;;;6.05;4.72;;;;;;;31.57;46.20;100014.81;5039987;28;20401;-66
2023/07/16 09:05:21;;;;;;;7.47;5.10;;;;;;;31.65;45.19;100020.44;5040252;28;20037;-66
2023/07/16 09:07:46;;;;;;;6.57;4.60;;;;;;;31.85;45.91;100021.28;5040154;28;20041;-65
2023/07/16 09:10:12;;;;;;;7.20;5.07;;;;;;;31.70;45.90;100012.19;5040294;28;20026;-67
2023/07/16 09:12:47;;;;;;;5.50;4.63;;;;;;;31.65;46.45;100005.94;5040174;28;20037;-65
2023/07/16 09:15:18;;;;;;;6.43;5.32;;;;;;;31.92;46.03;100017.06;5039983;28;20072;-67
2023/07/16 09:17:48;;;;;;;6.50;5.68;;;;;;;31.92;45.80;100014.34;5039454;28;20053;-66
2023/07/16 09:20:18;;;;;;;7.68;5.72;;;;;;;32.05;45.93;100010.03;5040269;28;20033;-66
2023/07/16 09:22:44;;;;;;;6.32;5.72;;;;;;;32.04;45.40;100011.16;5039755;28;20052;-67
2023/07/16 09:25:10;;;;;;;7.18;6.47;;;;;;;31.66;48.54;100018.53;5039902;28;20173;-67
2023/07/16 09:27:36;;;;;;;9.35;7.05;;;;;;;31.61;48.43;100008.44;5039708;28;20251;-66
2023/07/16 09:30:06;;;;;;;9.40;6.63;;;;;;;31.59;49.30;100002.47;5022274;28;20029;-66
2023/07/16 09:32:37;;;;;;;6.97;6.20;;;;;;;31.75;47.94;100005.81;5039644;28;20095;-66
2023/07/16 09:35:09;;;;;;;7.22;6.28;;;;;;;31.88;48.27;100001.53;5039924;28;20258;-66
2023/07/16 09:37:37;;;;;;;6.65;5.72;;;;;;;31.90;48.34;100004.78;5039769;28;20037;-66
2023/07/16 09:40:03;;;;;;;8.40;6.22;;;;;;;31.79;48.78;100004.13;5039789;28;20030;-66
2023/07/16 09:42:29;;;;;;;8.00;7.07;;;;;;;31.76;49.98;99999.25;5039805;28;20340;-66
2023/07/16 09:44:57;;;;;;;9.82;7.03;;;;;;;31.83;50.81;99998.88;5039737;28;20253;-66
2023/07/16 09:47:22;;;;;;;7.20;6.45;;;;;;;31.61;51.56;99993.97;5039059;28;20060;-66
2023/07/16 09:49:48;;;;;;;8.65;6.68;;;;;;;31.74;52.10;99987.78;5040042;28;20338;-66
2023/07/16 09:52:14;;;;;;;9.55;7.30;;;;;;;31.67;49.65;99987.31;5039628;28;20045;-66
2023/07/16 09:54:41;;;;;;;9.18;8.07;;;;;;;31.68;51.52;99978.78;5040231;28;20124;-66
2023/07/16 09:57:07;;;;;;;8.13;7.10;;;;;;;31.70;50.55;99978.53;5039257;28;20056;-66
2023/07/16 09:59:34;;;;;;;9.93;7.30;;;;;;;31.76;50.45;99980.06;5039411;28;20033;-65
2023/07/16 10:02:00;;;;;;;10.05;7.32;;;;;;;31.90;50.73;99970.00;5039142;28;20033;-67
2023/07/16 10:04:26;;;;;;;7.68;6.88;;;;;;;31.97;49.19;99969.63;5039200;28;20341;-66
2023/07/16 10:07:01;;;;;;;8.40;7.05;;;;;;;32.19;49.06;99969.00;5039125;28;20033;-66
2023/07/16 10:09:50;;;;;;;9.45;7.05;;;;;;;32.34;48.71;99958.66;5039193;28;20025;-67
2023/07/16 10:12:18;;;;;;;8.70;7.03;;;;;;;32.46;50.29;99963.66;5038982;28;20346;-66
2023/07/16 10:14:51;;;;;;;7.88;7.07;;;;;;;32.67;50.01;99950.38;5039487;28;20261;-67
2023/07/16 10:17:19;;;;;;;11.65;7.28;;;;;;;32.36;48.71;99959.16;5038606;28;20101;-66
2023/07/16 10:19:51;;;;;;;7.78;6.97;;;;;;;32.27;48.69;99958.22;5039148;28;20045;-66
2023/07/16 10:22:18;;;;;;;8.95;7.47;;;;;;;32.31;50.16;99961.97;5039202;28;20091;-67
2023/07/16 10:24:43;;;;;;;8.95;7.05;;;;;;;32.46;48.77;99952.69;5039370;28;20033;-67
2023/07/16 10:27:12;;;;;;;9.05;7.13;;;;;;;32.62;48.59;99948.53;5039510;28;20037;-66
2023/07/16 10:29:38;;;;;;;10.32;7.82;;;;;;;32.75;49.91;99935.94;5039765;28;20033;-67
2023/07/16 10:32:07;;;;;;;10.07;7.80;;;;;;;32.86;46.78;99934.66;5038752;28;20389;-66
2023/07/16 10:34:35;;;;;;;9.23;7.57;;;;;;;32.98;47.59;99934.16;5039283;28;20048;-67
2023/07/16 10:37:00;;;;;;;8.07;7.28;;;;;;;32.99;47.08;99933.03;5039090;28;20033;-67
2023/07/16 10:39:26;;;;;;;9.38;7.40;;;;;;;32.31;49.36;99934.59;5039942;28;20032;-66
2023/07/16 10:41:51;;;;;;;8.60;7.25;;;;;;;32.21;49.55;99931.97;5040153;28;20033;-66
2023/07/16 10:44:17;;;;;;;9.55;7.38;;;;;;;32.00;51.27;99933.41;5040126;28;20109;-66
2023/07/16 10:46:42;;;;;;;8.38;7.55;;;;;;;32.16;51.58;99926.56;5039802;28;20030;-66
2023/07/16 10:49:08;;;;;;;10.02;7.18;;;;;;;32.18;52.41;99927.09;5039061;28;20068;-66
2023/07/16 10:51:33;;;;;;;12.35;8.23;;;;;;;32.11;52.01;99915.69;5038440;28;20057;-66
2023/07/16 10:53:59;;;;;;;8.25;7.43;;;;;;;32.28;51.03;99915.19;5038772;28;20037;-66
2023/07/16 10:56:25;;;;;;;9.20;7.57;;;;;;;32.31;49.68;99912.66;5038434;28;20056;-67
2023/07/16 10:58:51;;;;;;;10.95;7.28;;;;;;;32.37;51.94;99919.69;5038314;28;20041;-66
2023/07/16 11:01:16;;;;;;;9.35;7.32;;;;;;;32.19;51.26;99909.53;5038377;28;20068;-66
2023/07/16 11:03:42;;;;;;;10.25;7.30;;;;;;;32.22;50.85;99899.91;5038893;28;20034;-66
2023/07/16 11:06:11;;;;;;;7.65;6.95;;;;;;;32.28;50.24;99904.22;5039654;28;20055;-66
2023/07/16 11:08:37;;;;;;;8.93;7.78;;;;;;;32.23;48.98;99899.59;5039011;28;20033;-66
2023/07/16 11:11:02;;;;;;;8.43;7.60;;;;;;;32.32;51.49;99888.81;5037527;28;20029;-66
2023/07/16 11:13:30;;;;;;;8.70;7.28;;;;;;;32.29;50.79;99884.75;5038406;28;20045;-66
2023/07/16 11:15:56;;;;;;;8.88;7.90;;;;;;;32.28;51.34;99891.34;5037873;28;20040;-66
2023/07/16 11:18:25;;;;;;;8.95;7.18;;;;;;;32.31;51.38;99888.00;5037552;28;20061;-66
2023/07/16 11:20:52;;;;;;;8.60;7.07;;;;;;;32.36;51.39;99879.69;5038200;28;20064;-66
2023/07/16 11:23:17;;;;;;;8.40;7.53;;;;;;;32.28;51.42;99874.91;5038159;28;20238;-67
2023/07/16 11:25:49;;;;;;;12.18;7.63;;;;;;;32.38;52.52;99871.97;5037957;28;20118;-66